Time;durP1;ratioP1;P1;durP2;ratioP2;P2;SDS_P1;SDS_P2;PMS_P1;PMS_P2;Temp;Humidity;BMP_temperature;BMP_pressure;BME280_temperature;BME280_humidity;BME280_pressure;Samples;Min_cycle;Max_cycle;Signal;HPM_P1;HPM_P2
2023/03/16 00:01:02;;;;;;;;;;;13.50;90.60;;;;;;5050907;28;20269;-86
2023/03/16 00:03:29;;;;;;;;;;;13.50;90.50;;;;;;5051996;28;19909;-86
2023/03/16 00:05:55;;;;;;;;;;;13.50;90.50;;;;;;5035829;28;19921;-86
2023/03/16 00:08:21;;;;;;;;;;;13.50;90.40;;;;;;5051554;28;20490;-86
2023/03/16 00:10:52;;;;;;;;;;;13.50;90.40;;;;;;5050595;28;20267;-86
2023/03/16 00:13:22;;;;;;;;;;;13.50;90.40;;;;;;5035042;28;19909;-87
2023/03/16 00:15:52;;;;;;;;;;;13.50;90.40;;;;;;5051955;28;19916;-86
2023/03/16 00:18:17;;;;;;;;;;;13.50;90.30;;;;;;5051820;28;19909;-86
2023/03/16 00:20:43;;;;;;;;;;;13.40;90.30;;;;;;5051850;28;19917;-87
2023/03/16 00:23:08;;;;;;;;;;;13.40;90.30;;;;;;5049790;28;20027;-86
2023/03/16 00:25:34;;;;;;;;;;;13.40;90.20;;;;;;5051028;28;20191;-86
2023/03/16 00:28:03;;;;;;;;;;;13.40;90.30;;;;;;5050312;28;19921;-86
2023/03/16 00:30:31;;;;;;;;;;;13.40;90.20;;;;;;5051145;28;19909;-86
2023/03/16 00:32:57;;;;;;;;;;;13.40;90.20;;;;;;5049879;28;19927;-86
2023/03/16 00:35:26;;;;;;;;;;;13.40;90.20;;;;;;5050194;28;19974;-86
2023/03/16 00:37:56;;;;;;;;;;;13.40;90.20;;;;;;5050011;28;19909;-86
2023/03/16 00:40:21;;;;;;;;;;;13.40;90.20;;;;;;5050012;28;19917;-87
2023/03/16 00:42:47;;;;;;;;;;;13.40;90.20;;;;;;5053337;28;19963;-86
2023/03/16 00:45:16;;;;;;;;;;;13.40;90.10;;;;;;5053182;28;19909;-86
2023/03/16 00:47:41;;;;;;;;;;;13.30;90.10;;;;;;5054605;28;19979;-87
2023/03/16 00:50:07;;;;;;;;;;;13.30;90.00;;;;;;5054904;28;19917;-86
2023/03/16 00:52:34;;;;;;;;;;;13.30;90.00;;;;;;5054569;28;20036;-86
2023/03/16 00:54:59;;;;;;;;;;;13.30;90.00;;;;;;5038504;28;19921;-86
2023/03/16 00:57:26;;;;;;;;;;;13.30;90.00;;;;;;5038384;28;19909;-86
2023/03/16 00:59:54;;;;;;;;;;;13.30;90.00;;;;;;5055789;28;19909;-86
2023/03/16 01:02:23;;;;;;;;;;;13.30;90.00;;;;;;5038993;28;20016;-86
2023/03/16 01:04:50;;;;;;;;;;;13.30;90.00;;;;;;5055725;28;20305;-86
2023/03/16 01:07:20;;;;;;;;;;;13.30;89.90;;;;;;5054775;28;20160;-86
2023/03/16 01:09:46;;;;;;;;;;;13.30;89.90;;;;;;5038716;28;19909;-86
2023/03/16 01:12:14;;;;;;;;;;;13.30;89.80;;;;;;5054555;28;19931;-86
2023/03/16 01:14:44;;;;;;;;;;;13.30;89.70;;;;;;5055336;28;20329;-86
2023/03/16 01:17:10;;;;;;;;;;;13.30;89.60;;;;;;5055835;28;19909;-86
2023/03/16 01:19:40;;;;;;;;;;;13.20;89.50;;;;;;5054880;28;19917;-86
2023/03/16 01:22:09;;;;;;;;;;;13.20;89.40;;;;;;5055965;28;19909;-86
2023/03/16 01:24:38;;;;;;;;;;;13.20;89.40;;;;;;5053955;28;19909;-86
2023/03/16 01:27:07;;;;;;;;;;;13.30;89.40;;;;;;5054905;28;19914;-86
2023/03/16 01:29:33;;;;;;;;;;;13.20;89.20;;;;;;5054524;28;19913;-86
2023/03/16 01:32:00;;;;;;;;;;;13.20;89.10;;;;;;5054338;28;19923;-86
2023/03/16 01:34:28;;;;;;;;;;;13.20;88.90;;;;;;5054739;28;20007;-86
2023/03/16 01:36:54;;;;;;;;;;;13.20;88.80;;;;;;5053123;28;19924;-86
2023/03/16 01:39:19;;;;;;;;;;;13.20;88.80;;;;;;5051611;28;19909;-87
2023/03/16 01:41:48;;;;;;;;;;;13.20;88.60;;;;;;5050842;28;19909;-86
2023/03/16 01:44:21;;;;;;;;;;;13.20;88.50;;;;;;5051153;28;20270;-86
2023/03/16 01:46:47;;;;;;;;;;;13.20;88.30;;;;;;5052296;28;19915;-86
2023/03/16 01:49:15;;;;;;;;;;;13.20;88.30;;;;;;5053515;28;19913;-86
2023/03/16 01:51:46;;;;;;;;;;;13.20;88.20;;;;;;5054279;28;19917;-86
2023/03/16 01:54:18;;;;;;;;;;;13.20;88.10;;;;;;5052742;28;20303;-86
2023/03/16 01:56:50;;;;;;;;;;;13.10;87.90;;;;;;5053375;28;19960;-86
2023/03/16 01:59:17;;;;;;;;;;;13.10;87.80;;;;;;5053762;28;19917;-86
2023/03/16 02:01:43;;;;;;;;;;;13.20;87.80;;;;;;5053688;28;19917;-86
2023/03/16 02:04:15;;;;;;;;;;;13.10;87.70;;;;;;5054401;28;19936;-86
2023/03/16 02:06:41;;;;;;;;;;;13.10;87.70;;;;;;5053126;28;19909;-87
2023/03/16 02:09:07;;;;;;;;;;;13.10;87.60;;;;;;5053261;28;19913;-86
2023/03/16 02:11:33;;;;;;;;;;;13.10;87.40;;;;;;5054136;28;19936;-86
2023/03/16 02:14:01;;;;;;;;;;;13.10;87.30;;;;;;5038263;28;19917;-86
2023/03/16 02:16:27;;;;;;;;;;;13.10;87.30;;;;;;5054573;28;20317;-86
2023/03/16 02:18:55;;;;;;;;;;;13.10;87.30;;;;;;5054738;28;19909;-86
2023/03/16 02:21:34;;;;;;;;;;;13.10;87.20;;;;;;5052029;28;19948;-86
2023/03/16 02:24:02;;;;;;;;;;;13.10;87.20;;;;;;5052970;28;19909;-86
2023/03/16 02:26:43;;;;;;;;;;;13.10;87.20;;;;;;5052347;28;20164;-86
2023/03/16 02:29:15;;;;;;;;;;;13.10;87.20;;;;;;5036373;28;19921;-86
2023/03/16 02:31:41;;;;;;;;;;;13.10;87.20;;;;;;5036237;28;20160;-86
2023/03/16 02:34:07;;;;;;;;;;;13.10;87.30;;;;;;5052303;28;19971;-86
2023/03/16 02:36:36;;;;;;;;;;;13.10;87.30;;;;;;5053385;28;20275;-86
2023/03/16 02:39:04;;;;;;;;;;;13.00;87.10;;;;;;5037173;28;19909;-86
2023/03/16 02:41:31;;;;;;;;;;;13.10;87.10;;;;;;5053115;28;19924;-86
2023/03/16 02:44:00;;;;;;;;;;;13.00;87.10;;;;;;5052182;28;19995;-86
2023/03/16 02:46:34;;;;;;;;;;;13.00;87.10;;;;;;5052530;28;19913;-86
2023/03/16 02:49:08;;;;;;;;;;;13.00;87.10;;;;;;5052014;28;20259;-86
2023/03/16 02:51:35;;;;;;;;;;;13.00;87.00;;;;;;5049909;28;20299;-87
2023/03/16 02:54:00;;;;;;;;;;;13.00;86.90;;;;;;5051785;28;19910;-86
2023/03/16 02:56:26;;;;;;;;;;;13.00;86.90;;;;;;5053624;28;20289;-86
2023/03/16 02:58:56;;;;;;;;;;;13.00;86.90;;;;;;5053147;28;19909;-87
2023/03/16 03:01:23;;;;;;;;;;;13.00;86.90;;;;;;5053111;28;19912;-87
2023/03/16 03:03:49;;;;;;;;;;;13.00;87.00;;;;;;5036732;28;20144;-87
2023/03/16 03:06:14;;;;;;;;;;;13.00;86.90;;;;;;5053421;28;19956;-87
2023/03/16 03:08:41;;;;;;;;;;;13.00;86.80;;;;;;5052400;28;19921;-87
2023/03/16 03:11:10;;;;;;;;;;;13.00;86.80;;;;;;5052260;28;19917;-86
2023/03/16 03:13:38;;;;;;;;;;;13.00;86.90;;;;;;5035480;28;20061;-86
2023/03/16 03:16:03;;;;;;;;;;;13.00;86.80;;;;;;5051594;28;19909;-87
2023/03/16 03:18:33;;;;;;;;;;;12.90;86.70;;;;;;5051553;28;19975;-86
2023/03/16 03:21:00;;;;;;;;;;;12.90;86.70;;;;;;5051853;28;20004;-87
2023/03/16 03:23:25;;;;;;;;;;;12.90;86.70;;;;;;5051459;28;19909;-86
2023/03/16 03:25:51;;;;;;;;;;;12.90;86.50;;;;;;5052157;28;19916;-86
2023/03/16 03:28:17;;;;;;;;;;;12.90;86.60;;;;;;5052387;28;19960;-86
2023/03/16 03:30:42;;;;;;;;;;;12.90;86.40;;;;;;5052345;28;19909;-86
2023/03/16 03:33:11;;;;;;;;;;;12.90;86.30;;;;;;5051183;28;20191;-86
2023/03/16 03:35:37;;;;;;;;;;;12.90;86.20;;;;;;5036347;28;19909;-86
2023/03/16 03:38:02;;;;;;;;;;;12.90;86.10;;;;;;5053098;28;19936;-86
2023/03/16 03:40:28;;;;;;;;;;;12.90;85.80;;;;;;5052546;28;20068;-86
2023/03/16 03:42:54;;;;;;;;;;;12.90;85.60;;;;;;5052973;28;19990;-86
2023/03/16 03:45:19;;;;;;;;;;;12.90;85.60;;;;;;5053004;28;19927;-88
2023/03/16 03:47:45;;;;;;;;;;;12.90;85.50;;;;;;5052948;28;19913;-86
2023/03/16 03:50:12;;;;;;;;;;;12.90;85.40;;;;;;5051456;28;20007;-86
2023/03/16 03:52:38;;;;;;;;;;;12.90;85.10;;;;;;5051006;28;20229;-87
2023/03/16 03:55:06;;;;;;;;;;;12.80;84.80;;;;;;5035131;28;19920;-87
2023/03/16 03:57:32;;;;;;;;;;;12.80;84.80;;;;;;5051145;28;20273;-86
2023/03/16 03:59:58;;;;;;;;;;;12.80;84.70;;;;;;5034556;28;20058;-86
2023/03/16 04:02:26;;;;;;;;;;;12.80;84.50;;;;;;5051355;28;20171;-86
2023/03/16 04:04:52;;;;;;;;;;;12.80;84.30;;;;;;5049602;28;19909;-86
2023/03/16 04:07:17;;;;;;;;;;;12.80;84.00;;;;;;5048768;28;19909;-87
2023/03/16 04:09:43;;;;;;;;;;;12.80;83.80;;;;;;5048966;28;20360;-86
2023/03/16 04:12:09;;;;;;;;;;;12.80;83.60;;;;;;5047575;28;19920;-86
2023/03/16 04:14:38;;;;;;;;;;;12.80;83.50;;;;;;5047745;28;19959;-87
2023/03/16 04:17:04;;;;;;;;;;;12.80;83.20;;;;;;5047418;28;19921;-87
2023/03/16 04:19:29;;;;;;;;;;;12.80;83.30;;;;;;5030621;28;20189;-86
2023/03/16 04:21:55;;;;;;;;;;;12.80;83.10;;;;;;5047305;28;19974;-86
2023/03/16 04:24:21;;;;;;;;;;;12.70;82.90;;;;;;5048191;28;19909;-87
2023/03/16 04:26:47;;;;;;;;;;;12.80;82.80;;;;;;5032796;28;19912;-87
2023/03/16 04:29:13;;;;;;;;;;;12.80;82.70;;;;;;5033537;28;19917;-87
2023/03/16 04:31:41;;;;;;;;;;;12.80;82.70;;;;;;5049134;28;19974;-87
2023/03/16 04:34:07;;;;;;;;;;;12.80;82.60;;;;;;5049537;28;19928;-87
2023/03/16 04:36:33;;;;;;;;;;;12.70;82.30;;;;;;5033776;28;20207;-87
2023/03/16 04:38:58;;;;;;;;;;;12.70;82.20;;;;;;5049230;28;19909;-87
2023/03/16 04:41:24;;;;;;;;;;;12.70;82.10;;;;;;5049947;28;19924;-87
2023/03/16 04:43:50;;;;;;;;;;;12.70;81.90;;;;;;5034161;28;19913;-87
2023/03/16 04:46:15;;;;;;;;;;;12.70;81.70;;;;;;5050883;28;19919;-87
2023/03/16 04:48:41;;;;;;;;;;;12.70;81.50;;;;;;5050443;28;19928;-88
2023/03/16 04:51:06;;;;;;;;;;;12.70;81.30;;;;;;5049273;28;19909;-87
2023/03/16 04:53:32;;;;;;;;;;;12.70;81.00;;;;;;5033134;28;19913;-87
2023/03/16 04:55:58;;;;;;;;;;;12.60;80.80;;;;;;5049726;28;19909;-87
2023/03/16 04:58:24;;;;;;;;;;;12.60;80.70;;;;;;5031547;28;19920;-87
2023/03/16 05:00:55;;;;;;;;;;;12.70;80.70;;;;;;5048225;28;20428;-87
2023/03/16 05:03:21;;;;;;;;;;;12.70;80.50;;;;;;5049270;28;19988;-87
2023/03/16 05:05:47;;;;;;;;;;;12.60;80.20;;;;;;5049122;28;20310;-87
2023/03/16 05:08:12;;;;;;;;;;;12.60;80.10;;;;;;5047809;28;19924;-87
2023/03/16 05:10:38;;;;;;;;;;;12.60;80.00;;;;;;5048737;28;20008;-86
2023/03/16 05:13:04;;;;;;;;;;;12.60;80.00;;;;;;5049015;28;20291;-87
2023/03/16 05:15:30;;;;;;;;;;;12.50;79.70;;;;;;5033015;28;19909;-87
2023/03/16 05:18:00;;;;;;;;;;;12.50;79.70;;;;;;5049923;28;19916;-87
2023/03/16 05:20:25;;;;;;;;;;;12.60;79.70;;;;;;5049491;28;20203;-87
2023/03/16 05:22:54;;;;;;;;;;;12.60;79.40;;;;;;5048398;28;20315;-88
2023/03/16 05:25:20;;;;;;;;;;;12.50;79.20;;;;;;5046994;28;20275;-88
2023/03/16 05:27:47;;;;;;;;;;;12.50;78.90;;;;;;5031093;28;19913;-87
2023/03/16 05:30:15;;;;;;;;;;;12.50;78.70;;;;;;5049199;28;19909;-87
2023/03/16 05:32:40;;;;;;;;;;;12.50;78.40;;;;;;5049164;28;20058;-87
2023/03/16 05:35:06;;;;;;;;;;;12.50;78.20;;;;;;5050819;28;20210;-87
2023/03/16 05:37:36;;;;;;;;;;;12.50;78.20;;;;;;5034699;28;20291;-87
2023/03/16 05:40:21;;;;;;;;;;;12.50;78.20;;;;;;5051478;28;19963;-87
2023/03/16 05:42:48;;;;;;;;;;;12.50;78.20;;;;;;5034759;28;20410;-87
2023/03/16 05:45:15;;;;;;;;;;;12.50;78.00;;;;;;5048862;28;20004;-87
2023/03/16 05:47:42;;;;;;;;;;;12.50;77.70;;;;;;5051522;28;20044;-87
2023/03/16 05:50:10;;;;;;;;;;;12.50;77.50;;;;;;5035384;28;20302;-87
2023/03/16 05:52:37;;;;;;;;;;;12.50;77.50;;;;;;5050052;28;19913;-87
2023/03/16 05:55:04;;;;;;;;;;;12.50;77.90;;;;;;5048182;28;19972;-87
2023/03/16 05:57:33;;;;;;;;;;;12.50;77.10;;;;;;5048504;28;19913;-87
2023/03/16 06:00:00;;;;;;;;;;;12.50;77.00;;;;;;5050610;28;19960;-87
2023/03/16 06:02:26;;;;;;;;;;;12.50;76.90;;;;;;5052128;28;19909;-88
2023/03/16 06:04:52;;;;;;;;;;;12.50;76.60;;;;;;5049338;28;19970;-87
2023/03/16 06:07:17;;;;;;;;;;;12.50;76.60;;;;;;5046847;28;20124;-88
2023/03/16 06:09:44;;;;;;;;;;;12.50;76.30;;;;;;5031141;28;20267;-88
2023/03/16 06:12:10;;;;;;;;;;;12.50;76.20;;;;;;5031652;28;19909;-88
2023/03/16 06:14:35;;;;;;;;;;;12.50;76.30;;;;;;5046843;28;19913;-88
2023/03/16 06:17:01;;;;;;;;;;;12.50;76.00;;;;;;5047943;28;20024;-88
2023/03/16 06:19:26;;;;;;;;;;;12.50;76.20;;;;;;5047906;28;19921;-88
2023/03/16 06:21:55;;;;;;;;;;;12.50;77.00;;;;;;5047954;28;19917;-88
2023/03/16 06:24:20;;;;;;;;;;;12.50;77.60;;;;;;5047461;28;19909;-88
2023/03/16 06:26:46;;;;;;;;;;;12.60;78.90;;;;;;5047383;28;19975;-88
2023/03/16 06:29:11;;;;;;;;;;;12.60;79.40;;;;;;5047810;28;20055;-88
2023/03/16 06:31:37;;;;;;;;;;;12.60;79.80;;;;;;5030864;28;19920;-88
2023/03/16 06:34:02;;;;;;;;;;;12.60;80.10;;;;;;5046468;28;19928;-87
2023/03/16 06:36:28;;;;;;;;;;;12.60;80.00;;;;;;5046463;28;19932;-88
2023/03/16 06:38:57;;;;;;;;;;;12.70;79.90;;;;;;5046787;28;19915;-88
2023/03/16 06:41:22;;;;;;;;;;;12.70;79.70;;;;;;5047590;28;20432;-88
2023/03/16 06:43:48;;;;;;;;;;;12.80;79.40;;;;;;5043932;28;19920;-88
2023/03/16 06:46:13;;;;;;;;;;;12.90;79.00;;;;;;5046209;28;20347;-85
2023/03/16 06:48:40;;;;;;;;;;;13.00;78.20;;;;;;5044388;28;20374;-85
2023/03/16 06:51:06;;;;;;;;;;;13.40;76.50;;;;;;5043083;28;20210;-86
2023/03/16 06:53:32;;;;;;;;;;;13.80;73.50;;;;;;5041686;28;20406;-85
2023/03/16 06:56:00;;;;;;;;;;;14.10;71.10;;;;;;5042355;28;19917;-85
2023/03/16 06:58:26;;;;;;;;;;;14.00;70.20;;;;;;5043158;28;20099;-86
2023/03/16 07:00:54;;;;;;;;;;;14.10;69.80;;;;;;5040970;28;20297;-85
2023/03/16 07:03:20;;;;;;;;;;;14.00;69.40;;;;;;5040871;28;19910;-85
2023/03/16 07:05:46;;;;;;;;;;;14.10;68.80;;;;;;5025599;28;19913;-85
2023/03/16 07:08:13;;;;;;;;;;;14.10;68.20;;;;;;5038903;28;19913;-85
2023/03/16 07:10:42;;;;;;;;;;;14.10;68.10;;;;;;5039849;28;20383;-85
2023/03/16 07:13:10;;;;;;;;;;;14.10;68.00;;;;;;5041270;28;19909;-85
2023/03/16 07:15:36;;;;;;;;;;;14.10;67.70;;;;;;5039628;28;19974;-85
2023/03/16 07:18:02;;;;;;;;;;;14.10;67.30;;;;;;5025037;28;19909;-85
2023/03/16 07:20:30;;;;;;;;;;;14.10;66.90;;;;;;5042171;28;19913;-85
2023/03/16 07:22:55;;;;;;;;;;;14.10;67.00;;;;;;5027490;28;20361;-85
2023/03/16 07:25:21;;;;;;;;;;;14.10;67.40;;;;;;5041054;28;20443;-86
2023/03/16 07:27:49;;;;;;;;;;;14.30;66.00;;;;;;5042794;28;20241;-85
2023/03/16 07:30:15;;;;;;;;;;;14.70;64.10;;;;;;5026457;28;19913;-85
2023/03/16 07:32:44;;;;;;;;;;;15.20;61.70;;;;;;5026422;28;20302;-85
2023/03/16 07:35:10;;;;;;;;;;;15.00;60.60;;;;;;5042983;28;20020;-85
2023/03/16 07:37:36;;;;;;;;;;;14.90;60.90;;;;;;5043549;28;19974;-85
2023/03/16 07:40:02;;;;;;;;;;;14.80;61.00;;;;;;5043172;28;19937;-85
2023/03/16 07:42:28;;;;;;;;;;;14.70;61.10;;;;;;5044938;28;19910;-85
2023/03/16 07:44:53;;;;;;;;;;;14.60;61.20;;;;;;5042974;28;19916;-85
2023/03/16 07:47:19;;;;;;;;;;;14.60;61.30;;;;;;5042439;28;19987;-85
2023/03/16 07:49:44;;;;;;;;;;;14.60;61.20;;;;;;5043222;28;19909;-85
2023/03/16 07:52:12;;;;;;;;;;;14.60;61.00;;;;;;5024477;28;19943;-85
2023/03/16 07:54:41;;;;;;;;;;;14.70;61.00;;;;;;5026829;28;19913;-85
2023/03/16 07:57:10;;;;;;;;;;;15.00;61.00;;;;;;5044123;28;20007;-85
2023/03/16 07:59:37;;;;;;;;;;;15.40;60.30;;;;;;5043418;28;20089;-86
2023/03/16 08:02:03;;;;;;;;;;;16.10;59.00;;;;;;5043911;28;20175;-86
2023/03/16 08:04:28;;;;;;;;;;;16.50;57.70;;;;;;5043699;28;19971;-86
2023/03/16 08:06:59;;;;;;;;;;;16.70;56.90;;;;;;5045638;28;19917;-86
2023/03/16 08:09:30;;;;;;;;;;;16.60;56.50;;;;;;5027857;28;19921;-86
2023/03/16 08:11:55;;;;;;;;;;;16.50;56.60;;;;;;5041720;28;19994;-86
2023/03/16 08:14:22;;;;;;;;;;;16.20;56.70;;;;;;5045123;28;19909;-87
2023/03/16 08:16:48;;;;;;;;;;;15.90;56.90;;;;;;5042706;28;19920;-86
2023/03/16 08:19:13;;;;;;;;;;;15.70;57.20;;;;;;5044465;28;19909;-86
2023/03/16 08:21:41;;;;;;;;;;;15.60;57.50;;;;;;5044180;28;19920;-86
2023/03/16 08:24:06;;;;;;;;;;;15.50;57.60;;;;;;5044231;28;19917;-86
2023/03/16 08:26:32;;;;;;;;;;;15.40;57.60;;;;;;5045479;28;19975;-86
2023/03/16 08:29:01;;;;;;;;;;;15.30;57.70;;;;;;5042471;28;19913;-86
2023/03/16 08:31:33;;;;;;;;;;;15.10;57.90;;;;;;5029104;28;19909;-86
2023/03/16 08:34:02;;;;;;;;;;;15.00;58.20;;;;;;5030924;28;19952;-86
2023/03/16 08:36:29;;;;;;;;;;;14.80;58.50;;;;;;5046437;28;19909;-86
2023/03/16 08:38:55;;;;;;;;;;;14.70;58.80;;;;;;5045891;28;19909;-86
2023/03/16 08:41:21;;;;;;;;;;;14.60;59.10;;;;;;5029840;28;19909;-86
2023/03/16 08:43:47;;;;;;;;;;;14.50;59.50;;;;;;5029538;28;20477;-86
2023/03/16 08:46:13;;;;;;;;;;;14.40;59.90;;;;;;5041899;28;19924;-86
2023/03/16 08:48:40;;;;;;;;;;;14.30;60.30;;;;;;5052392;28;20147;-86
2023/03/16 08:51:06;;;;;;;;;;;14.30;60.70;;;;;;5043957;28;19917;-86
2023/03/16 08:53:32;;;;;;;;;;;14.20;61.10;;;;;;5030043;28;20027;-86
2023/03/16 08:56:05;;;;;;;;;;;14.20;61.40;;;;;;5025860;28;20024;-86
2023/03/16 08:58:31;;;;;;;;;;;14.10;61.70;;;;;;5035303;28;20269;-86
2023/03/16 09:00:58;;;;;;;;;;;14.10;62.00;;;;;;5054635;28;19908;-86
2023/03/16 09:03:25;;;;;;;;;;;14.00;62.30;;;;;;5046504;28;20152;-86
2023/03/16 09:05:59;;;;;;;;;;;14.00;62.70;;;;;;5050326;28;19909;-87
2023/03/16 09:08:24;;;;;;;;;;;14.00;63.20;;;;;;5046995;28;19974;-86
2023/03/16 09:10:57;;;;;;;;;;;13.90;63.60;;;;;;5043865;28;19916;-86
2023/03/16 09:13:23;;;;;;;;;;;13.90;64.00;;;;;;5044762;28;20016;-86
2023/03/16 09:15:49;;;;;;;;;;;13.90;64.30;;;;;;5046059;28;20339;-86
2023/03/16 09:18:18;;;;;;;;;;;13.80;64.70;;;;;;5047022;28;19909;-86
2023/03/16 09:20:46;;;;;;;;;;;13.80;65.30;;;;;;5047038;28;19920;-87
2023/03/16 09:23:15;;;;;;;;;;;13.80;66.20;;;;;;5047239;28;19940;-86
2023/03/16 09:25:44;;;;;;;;;;;13.80;67.20;;;;;;5049533;28;20201;-86
2023/03/16 09:28:10;;;;;;;;;;;13.70;68.20;;;;;;5046922;28;19913;-86
2023/03/16 09:30:38;;;;;;;;;;;13.80;68.80;;;;;;5046342;28;20166;-86
2023/03/16 09:33:05;;;;;;;;;;;13.70;68.70;;;;;;5046490;28;20286;-87
2023/03/16 09:35:31;;;;;;;;;;;13.70;68.70;;;;;;5046100;28;19931;-87
2023/03/16 09:38:00;;;;;;;;;;;13.70;68.70;;;;;;5047760;28;19948;-86
2023/03/16 09:40:27;;;;;;;;;;;13.80;68.70;;;;;;5047681;28;19913;-87
2023/03/16 09:43:11;;;;;;;;;;;13.80;68.50;;;;;;5048252;28;19909;-87
2023/03/16 09:45:56;;;;;;;;;;;13.90;68.10;;;;;;5048530;28;20015;-86
2023/03/16 09:48:24;;;;;;;;;;;14.20;66.80;;;;;;5049771;28;19921;-86
2023/03/16 09:50:52;;;;;;;;;;;14.60;64.70;;;;;;5047828;28;20114;-86
2023/03/16 09:53:28;;;;;;;;;;;14.80;63.30;;;;;;5047856;28;19921;-86
2023/03/16 09:56:00;;;;;;;;;;;15.10;62.00;;;;;;5046380;28;20015;-86
2023/03/16 09:58:26;;;;;;;;;;;15.70;59.90;;;;;;5046835;28;20084;-86
2023/03/16 10:01:01;;;;;;;;;;;16.00;58.60;;;;;;5050532;28;19916;-87
2023/03/16 10:03:27;;;;;;;;;;;16.00;58.10;;;;;;5045934;28;20309;-87
2023/03/16 10:05:56;;;;;;;;;;;16.10;57.90;;;;;;5050026;28;20435;-86
2023/03/16 10:08:23;;;;;;;;;;;16.10;57.50;;;;;;5049693;28;19913;-86
2023/03/16 10:10:50;;;;;;;;;;;16.10;57.40;;;;;;5048007;28;19913;-86
2023/03/16 10:13:28;;;;;;;;;;;16.00;57.40;;;;;;5047446;28;19909;-86
2023/03/16 10:15:54;;;;;;;;;;;15.80;57.50;;;;;;5047230;28;20335;-86
2023/03/16 10:18:24;;;;;;;;;;;15.70;57.80;;;;;;5050349;28;20318;-86
2023/03/16 10:20:54;;;;;;;;;;;15.50;58.00;;;;;;5048013;28;19992;-86
2023/03/16 10:23:23;;;;;;;;;;;15.40;58.30;;;;;;5047967;28;20175;-87
2023/03/16 10:25:52;;;;;;;;;;;15.30;58.70;;;;;;5051064;28;20274;-86
2023/03/16 10:28:19;;;;;;;;;;;15.20;58.90;;;;;;5049888;28;20198;-86
2023/03/16 10:30:46;;;;;;;;;;;15.20;59.00;;;;;;5047661;28;19909;-86
2023/03/16 10:33:25;;;;;;;;;;;15.20;59.00;;;;;;5047528;28;20004;-87
2023/03/16 10:35:51;;;;;;;;;;;15.20;59.00;;;;;;5048353;28;19952;-86
2023/03/16 10:38:31;;;;;;;;;;;15.20;59.20;;;;;;5048363;28;19971;-86
2023/03/16 10:40:58;;;;;;;;;;;15.10;59.20;;;;;;5048052;28;20266;-87
2023/03/16 10:43:24;;;;;;;;;;;15.10;59.40;;;;;;5049380;28;20126;-86
2023/03/16 10:45:50;;;;;;;;;;;15.00;59.60;;;;;;5046953;28;20159;-86
2023/03/16 10:48:18;;;;;;;;;;;14.90;59.80;;;;;;5047319;28;19913;-86
2023/03/16 10:50:48;;;;;;;;;;;14.90;60.30;;;;;;5049639;28;19913;-86
2023/03/16 10:53:22;;;;;;;;;;;14.80;60.60;;;;;;5049025;28;20173;-86
2023/03/16 10:55:58;;;;;;;;;;;14.70;61.00;;;;;;5047923;28;19916;-86
2023/03/16 10:58:26;;;;;;;;;;;14.70;61.30;;;;;;5046292;28;19999;-86
2023/03/16 11:00:52;;;;;;;;;;;14.60;61.50;;;;;;5048010;28;19927;-86
2023/03/16 11:03:41;;;;;;;;;;;14.60;61.70;;;;;;5049915;28;19955;-86
2023/03/16 11:06:19;;;;;;;;;;;14.60;62.00;;;;;;5036495;28;19913;-86
2023/03/16 11:08:46;;;;;;;;;;;14.50;62.20;;;;;;5047431;28;19913;-86
2023/03/16 11:11:29;;;;;;;;;;;14.60;62.50;;;;;;5045606;28;19919;-86
2023/03/16 11:13:59;;;;;;;;;;;14.50;62.60;;;;;;5045787;28;20045;-86
2023/03/16 11:16:40;;;;;;;;;;;14.50;62.80;;;;;;5043921;28;19973;-86
2023/03/16 11:19:12;;;;;;;;;;;14.50;63.00;;;;;;5044734;28;20029;-86
2023/03/16 11:21:41;;;;;;;;;;;14.40;63.10;;;;;;5046180;28;19919;-86
2023/03/16 11:24:15;;;;;;;;;;;14.40;63.20;;;;;;5046388;28;20317;-86
2023/03/16 11:26:43;;;;;;;;;;;14.40;63.30;;;;;;5043098;28;20217;-86
2023/03/16 11:29:09;;;;;;;;;;;14.40;63.40;;;;;;5045854;28;20242;-87
2023/03/16 11:31:41;;;;;;;;;;;14.50;63.40;;;;;;5045357;28;20090;-86
2023/03/16 11:34:24;;;;;;;;;;;14.50;63.30;;;;;;5044660;28;19952;-86
2023/03/16 11:36:53;;;;;;;;;;;14.50;63.20;;;;;;5045220;28;19909;-86
2023/03/16 11:39:39;;;;;;;;;;;14.50;63.20;;;;;;5044319;28;19931;-86
2023/03/16 11:42:24;;;;;;;;;;;14.60;63.20;;;;;;5044219;28;19912;-87
2023/03/16 11:45:08;;;;;;;;;;;14.60;63.00;;;;;;5042574;28;19913;-86
2023/03/16 11:47:40;;;;;;;;;;;14.70;62.70;;;;;;5043495;28;19956;-86
2023/03/16 11:50:24;;;;;;;;;;;14.80;62.20;;;;;;5042476;28;20298;-86
2023/03/16 11:53:09;;;;;;;;;;;14.90;61.90;;;;;;5044083;28;19974;-86
2023/03/16 11:55:56;;;;;;;;;;;14.90;61.40;;;;;;5046890;28;19908;-87
2023/03/16 11:58:36;;;;;;;;;;;15.00;61.10;;;;;;5046389;28;19909;-86
2023/03/16 12:01:11;;;;;;;;;;;15.10;60.90;;;;;;5046815;28;20101;-86
2023/03/16 12:03:36;;;;;;;;;;;15.20;60.70;;;;;;5045413;28;20067;-86
2023/03/16 12:06:22;;;;;;;;;;;15.20;60.70;;;;;;5044988;28;19916;-86
2023/03/16 12:08:54;;;;;;;;;;;15.20;60.50;;;;;;5043016;28;19913;-86
2023/03/16 12:11:27;;;;;;;;;;;15.20;60.30;;;;;;5041355;28;20000;-86
2023/03/16 12:14:00;;;;;;;;;;;15.30;60.20;;;;;;5041569;28;19909;-86
2023/03/16 12:16:29;;;;;;;;;;;15.30;59.90;;;;;;5043988;28;20254;-86
2023/03/16 12:19:04;;;;;;;;;;;15.30;59.80;;;;;;5042228;28;19909;-87
2023/03/16 12:21:41;;;;;;;;;;;15.30;59.70;;;;;;5043043;28;20008;-86
2023/03/16 12:24:15;;;;;;;;;;;15.20;59.70;;;;;;5044819;28;19973;-87
2023/03/16 12:26:41;;;;;;;;;;;15.20;59.70;;;;;;5044833;28;19940;-86
2023/03/16 12:29:34;;;;;;;;;;;15.20;59.80;;;;;;5042965;28;19913;-87
2023/03/16 12:32:06;;;;;;;;;;;15.10;59.80;;;;;;5039486;28;19916;-87
2023/03/16 12:34:35;;;;;;;;;;;15.10;60.00;;;;;;5039046;28;19955;-87
2023/03/16 12:37:13;;;;;;;;;;;15.10;60.00;;;;;;5044288;28;20108;-86
2023/03/16 12:39:56;;;;;;;;;;;15.10;60.00;;;;;;5046809;28;19909;-86
2023/03/16 12:42:24;;;;;;;;;;;15.10;60.00;;;;;;5057323;28;19908;-86
2023/03/16 12:45:01;;;;;;;;;;;15.10;60.10;;;;;;5049432;28;19968;-86
2023/03/16 12:47:36;;;;;;;;;;;15.10;60.10;;;;;;5048782;28;19916;-86
2023/03/16 12:50:04;;;;;;;;;;;15.10;60.10;;;;;;5053084;28;19924;-86
2023/03/16 12:52:40;;;;;;;;;;;15.10;60.10;;;;;;5054065;28;19916;-86
2023/03/16 12:55:11;;;;;;;;;;;15.20;60.30;;;;;;5054381;28;19916;-86
2023/03/16 12:57:38;;;;;;;;;;;15.10;60.20;;;;;;5055084;28;19920;-86
2023/03/16 13:00:08;;;;;;;;;;;15.10;60.30;;;;;;5054189;28;20009;-86
2023/03/16 13:02:34;;;;;;;;;;;15.10;60.30;;;;;;5050482;28;19935;-86
2023/03/16 13:05:06;;;;;;;;;;;15.10;60.40;;;;;;5045450;28;20013;-86
2023/03/16 13:07:32;;;;;;;;;;;15.10;60.50;;;;;;5045020;28;19990;-86
2023/03/16 13:10:00;;;;;;;;;;;15.10;61.20;;;;;;5025875;28;19917;-86
2023/03/16 13:12:31;;;;;;;;;;;15.10;60.70;;;;;;5023889;28;19936;-86
2023/03/16 13:15:01;;;;;;;;;;;15.10;60.80;;;;;;5023030;28;19920;-86
2023/03/16 13:17:30;;;;;;;;;;;15.10;60.90;;;;;;5020172;28;19913;-86
2023/03/16 13:19:57;;;;;;;;;;;15.10;60.90;;;;;;5020736;28;20067;-86
2023/03/16 13:22:27;;;;;;;;;;;15.20;61.00;;;;;;5022752;28;19916;-86
2023/03/16 13:24:53;;;;;;;;;;;15.10;61.00;;;;;;5021106;28;19916;-86
2023/03/16 13:27:22;;;;;;;;;;;15.20;61.10;;;;;;5024359;28;19921;-86
2023/03/16 13:29:55;;;;;;;;;;;15.20;61.00;;;;;;5023077;28;20303;-86
2023/03/16 13:32:21;;;;;;;;;;;15.20;61.10;;;;;;5025724;28;20107;-86
2023/03/16 13:34:48;;;;;;;;;;;15.20;61.00;;;;;;5024741;28;20439;-86
2023/03/16 13:37:19;;;;;;;;;;;15.20;60.90;;;;;;5025136;28;19924;-86
2023/03/16 13:39:58;;;;;;;;;;;15.20;60.90;;;;;;5025271;28;19909;-86
2023/03/16 13:42:26;;;;;;;;;;;15.30;60.90;;;;;;5024506;28;19917;-86
2023/03/16 13:44:53;;;;;;;;;;;15.30;60.80;;;;;;5024262;28;19919;-86
2023/03/16 13:47:25;;;;;;;;;;;15.30;60.70;;;;;;5025838;28;20290;-86
2023/03/16 13:49:58;;;;;;;;;;;15.30;60.80;;;;;;5027487;28;20111;-86
2023/03/16 13:52:33;;;;;;;;;;;15.30;60.80;;;;;;5027714;28;19919;-86
2023/03/16 13:55:03;;;;;;;;;;;15.30;60.90;;;;;;5027510;28;20382;-86
2023/03/16 13:57:40;;;;;;;;;;;15.20;61.00;;;;;;5025888;28;19940;-86
2023/03/16 14:00:14;;;;;;;;;;;15.20;61.00;;;;;;5027861;28;19931;-86
2023/03/16 14:02:41;;;;;;;;;;;15.20;61.20;;;;;;5026592;28;20004;-86
2023/03/16 14:05:08;;;;;;;;;;;15.20;61.20;;;;;;5026511;28;19909;-87
2023/03/16 14:07:36;;;;;;;;;;;15.10;61.30;;;;;;5025129;28;19940;-86
2023/03/16 14:10:04;;;;;;;;;;;15.10;61.40;;;;;;5025451;28;19913;-86
2023/03/16 14:12:29;;;;;;;;;;;15.10;61.40;;;;;;5025574;28;19916;-86
2023/03/16 14:14:55;;;;;;;;;;;15.10;61.50;;;;;;5028351;28;20261;-86
2023/03/16 14:17:21;;;;;;;;;;;15.10;61.50;;;;;;5027269;28;19959;-86
2023/03/16 14:19:55;;;;;;;;;;;15.10;61.60;;;;;;5025696;28;20385;-86
2023/03/16 14:22:28;;;;;;;;;;;15.10;61.60;;;;;;5027091;28;20417;-86
2023/03/16 14:24:57;;;;;;;;;;;15.00;61.60;;;;;;5026058;28;19909;-86